createdAt,value
2022-09-30T00:02:56.679Z,52.20
2022-09-30T00:10:22.235Z,56.30
2022-09-30T00:14:07.237Z,57.33
2022-09-30T00:17:39.870Z,52.50
2022-09-30T00:20:43.855Z,60.43
2022-09-30T00:23:55.357Z,62.87
2022-09-30T00:26:52.538Z,67.20
2022-09-30T00:30:45.264Z,66.10
2022-09-30T00:34:20.016Z,60.63
2022-09-30T00:37:23.045Z,64.50
2022-09-30T00:44:10.775Z,61.23
2022-09-30T00:47:35.534Z,57.37
2022-09-30T00:51:18.216Z,53.83
2022-09-30T00:54:18.568Z,59.37
2022-09-30T00:57:40.304Z,62.50
2022-09-30T01:00:47.556Z,74.27
2022-09-30T01:04:11.858Z,69.83
2022-09-30T01:08:10.462Z,62.10
2022-09-30T01:11:45.465Z,58.97
2022-09-30T01:15:09.646Z,65.00
2022-09-30T01:22:28.358Z,82.80
2022-09-30T01:26:09.203Z,72.53
2022-09-30T01:33:47.553Z,77.67
2022-09-30T01:37:29.339Z,81.67
2022-09-30T01:44:29.515Z,77.97
2022-09-30T01:47:46.323Z,80.97
2022-09-30T01:54:59.076Z,85.93
2022-09-30T01:58:10.682Z,90.27
2022-09-30T02:01:21.764Z,94.23
2022-09-30T02:11:41.608Z,91.73
2022-09-30T02:15:00.509Z,97.83
2022-09-30T02:22:08.642Z,88.50
2022-09-30T02:25:36.019Z,95.23
2022-09-30T02:28:52.805Z,98.93
2022-09-30T02:32:12.456Z,98.43
2022-09-30T02:39:14.434Z,103.90
2022-09-30T02:42:47.565Z,93.73
2022-09-30T02:46:07.250Z,95.13
2022-09-30T02:49:27.275Z,104.97
2022-09-30T02:52:47.103Z,109.77
2022-09-30T02:55:56.659Z,101.90
2022-09-30T02:59:56.113Z,104.90
2022-09-30T03:02:56.395Z,115.67
2022-09-30T03:06:08.174Z,107.60
2022-09-30T03:13:04.207Z,123.80
2022-09-30T03:16:58.634Z,132.33
2022-09-30T03:27:51.542Z,112.87
2022-09-30T03:31:12.621Z,117.67
2022-09-30T03:34:59.398Z,97.37
2022-09-30T03:38:20.161Z,112.50
2022-09-30T03:41:48.459Z,117.30
2022-09-30T03:45:12.318Z,118.87
2022-09-30T03:48:47.220Z,118.30
2022-09-30T03:52:38.445Z,129.23
2022-09-30T03:56:12.996Z,125.33
2022-09-30T03:59:48.401Z,119.87
2022-09-30T04:06:39.309Z,127.43
2022-09-30T04:09:52.263Z,128.37
2022-09-30T04:17:19.195Z,117.77
2022-09-30T04:20:29.354Z,138.80
2022-09-30T04:23:35.952Z,140.20
2022-09-30T04:31:15.541Z,138.53
2022-09-30T04:37:39.675Z,110.27
2022-09-30T04:41:06.702Z,132.40
2022-09-30T04:44:21.365Z,132.70
2022-09-30T04:47:33.938Z,134.97
2022-09-30T04:51:13.537Z,143.10
2022-09-30T04:54:25.297Z,138.57
2022-09-30T04:57:42.651Z,149.80
2022-09-30T05:01:01.672Z,142.20
2022-09-30T05:04:16.611Z,147.80
2022-09-30T05:08:09.318Z,150.97
2022-09-30T05:11:22.933Z,150.07
2022-09-30T05:14:51.427Z,147.17
2022-09-30T05:18:22.116Z,156.93
2022-09-30T05:21:25.535Z,166.23
2022-09-30T05:25:14.162Z,171.93
2022-09-30T05:31:40.565Z,155.73
2022-09-30T05:38:25.152Z,180.30
2022-09-30T05:42:23.132Z,180.77
2022-09-30T05:45:35.395Z,169.27
2022-09-30T05:48:45.847Z,166.00
2022-09-30T05:51:57.415Z,169.07
2022-09-30T05:55:09.631Z,160.30
2022-09-30T05:58:22.113Z,166.70
2022-09-30T06:01:30.076Z,158.33
2022-09-30T06:04:39.472Z,159.20
2022-09-30T06:07:58.328Z,150.33
2022-09-30T06:11:07.814Z,151.03
2022-09-30T06:14:19.267Z,150.07
2022-09-30T06:25:16.269Z,154.90
2022-09-30T06:28:32.000Z,154.63
2022-09-30T06:31:40.515Z,158.80
2022-09-30T06:35:00.683Z,160.07
2022-09-30T06:38:26.722Z,163.87
2022-09-30T06:41:52.025Z,182.17
2022-09-30T06:45:00.633Z,161.17
2022-09-30T06:48:39.963Z,162.87
2022-09-30T06:52:27.883Z,149.57
2022-09-30T06:56:17.782Z,156.57
2022-09-30T07:00:01.736Z,151.10
2022-09-30T07:09:59.923Z,135.40
2022-09-30T07:13:49.537Z,131.70
2022-09-30T07:17:06.146Z,128.60
2022-09-30T07:23:56.749Z,143.75
2022-09-30T07:29:15.348Z,157.15
2022-09-30T07:31:43.740Z,139.38
2022-09-30T07:34:12.069Z,148.13
2022-09-30T07:36:45.213Z,135.63
2022-09-30T07:39:13.432Z,122.95
2022-09-30T07:41:44.285Z,121.13
2022-09-30T07:44:15.422Z,110.93
2022-09-30T07:46:45.187Z,109.13
2022-09-30T07:49:26.202Z,102.95
2022-09-30T07:51:58.685Z,92.03
2022-09-30T07:54:29.312Z,87.38
2022-09-30T07:57:09.643Z,97.45
2022-09-30T07:59:44.799Z,86.88
2022-09-30T08:02:16.998Z,85.75
2022-09-30T08:04:45.597Z,73.07
2022-09-30T08:07:15.407Z,68.70
2022-09-30T08:09:43.773Z,73.68
2022-09-30T08:12:12.088Z,62.00
2022-09-30T08:14:41.885Z,55.90
2022-09-30T08:17:10.080Z,51.65
2022-09-30T08:19:41.428Z,50.58
2022-09-30T08:36:41.069Z,37.15
2022-09-30T08:40:04.713Z,39.00
2022-09-30T08:43:55.874Z,33.25
2022-09-30T08:47:09.101Z,31.05
2022-09-30T08:57:20.664Z,30.92
2022-09-30T09:00:26.749Z,30.08
2022-09-30T09:03:34.996Z,25.25
2022-09-30T09:10:50.262Z,22.90
2022-09-30T09:14:14.192Z,23.13
2022-09-30T09:17:34.622Z,27.20
2022-09-30T09:20:41.909Z,20.52
2022-09-30T09:23:55.843Z,21.17
2022-09-30T09:26:49.342Z,17.88
2022-09-30T09:30:56.365Z,17.27
2022-09-30T09:34:20.173Z,15.10
2022-09-30T09:37:58.376Z,15.60
2022-09-30T09:41:05.478Z,21.63
2022-09-30T09:44:37.086Z,13.85
2022-09-30T09:48:00.716Z,9.80
2022-09-30T09:51:12.570Z,10.32
2022-09-30T09:54:22.802Z,8.23
2022-09-30T09:57:53.082Z,12.75
2022-09-30T10:01:22.507Z,7.88
2022-09-30T10:04:52.319Z,5.40
2022-09-30T10:08:25.697Z,13.10
2022-09-30T10:11:36.422Z,6.85
2022-09-30T10:14:50.054Z,6.10
2022-09-30T10:18:03.217Z,10.57
2022-09-30T10:22:30.291Z,5.43
2022-09-30T10:25:03.646Z,6.07
2022-09-30T10:31:37.518Z,2.78
2022-09-30T10:35:14.363Z,5.60
2022-09-30T10:38:44.018Z,4.38
2022-09-30T10:49:07.153Z,3.08
2022-09-30T10:52:35.484Z,4.13
2022-09-30T10:56:02.039Z,5.13
2022-09-30T10:59:29.248Z,3.25
2022-09-30T11:10:14.384Z,4.93
2022-09-30T11:13:59.029Z,5.97
2022-09-30T11:17:36.563Z,5.38
2022-09-30T11:20:56.163Z,4.43
2022-09-30T11:24:01.419Z,4.15
2022-09-30T11:27:17.355Z,3.28
2022-09-30T11:45:34.419Z,3.15
2022-09-30T11:48:35.120Z,3.40
2022-09-30T11:51:19.729Z,3.72
2022-09-30T11:54:04.532Z,2.85
2022-09-30T11:56:42.683Z,4.93
2022-09-30T11:59:19.870Z,3.20
2022-09-30T12:01:51.221Z,7.53
2022-09-30T12:04:23.456Z,3.30
2022-09-30T12:06:58.979Z,4.78
2022-09-30T12:09:30.244Z,4.38
2022-09-30T12:12:03.186Z,4.13
2022-09-30T12:14:37.011Z,2.60
2022-09-30T12:17:13.213Z,5.18
2022-09-30T12:19:46.708Z,3.00
2022-09-30T12:22:24.494Z,4.40
2022-09-30T12:24:52.808Z,3.17
2022-09-30T12:27:26.422Z,2.72
2022-09-30T12:30:21.390Z,5.20
2022-09-30T12:33:26.196Z,1.58
2022-09-30T12:36:21.811Z,1.98
2022-09-30T12:39:23.448Z,1.95
2022-09-30T12:42:07.248Z,2.85
2022-09-30T12:45:10.651Z,2.00
2022-09-30T12:47:46.150Z,1.85
2022-09-30T12:50:17.933Z,2.50
2022-09-30T12:52:46.377Z,1.65
2022-09-30T12:55:25.595Z,1.55
2022-09-30T12:57:55.160Z,3.10
2022-09-30T13:00:25.012Z,1.70
2022-09-30T13:02:58.086Z,1.70
2022-09-30T13:05:54.078Z,1.95
2022-09-30T13:08:48.466Z,1.63
2022-09-30T13:11:39.076Z,1.45
2022-09-30T13:14:33.729Z,1.35
2022-09-30T13:17:26.494Z,0.95
2022-09-30T13:19:57.554Z,0.90
2022-09-30T13:22:59.231Z,1.35
2022-09-30T13:25:51.897Z,4.55
2022-09-30T13:28:38.057Z,1.27
2022-09-30T13:31:24.948Z,14.90
2022-09-30T13:34:11.166Z,4.00
2022-09-30T13:36:57.825Z,1.65
2022-09-30T13:39:28.377Z,1.92
2022-09-30T13:42:04.562Z,0.73
2022-09-30T13:44:45.852Z,30.13
2022-09-30T13:47:21.240Z,56.10
2022-09-30T13:49:56.393Z,2.58
2022-09-30T13:52:29.049Z,2.22
2022-09-30T13:55:04.012Z,2.30
2022-09-30T13:57:49.660Z,3.00
2022-09-30T14:00:21.520Z,1.17
2022-09-30T14:03:27.721Z,1.08
2022-09-30T14:06:05.267Z,1.55
2022-09-30T14:09:02.629Z,1.77
2022-09-30T14:12:03.755Z,1.70
2022-09-30T14:15:12.891Z,1.85
2022-09-30T14:17:55.881Z,1.25
2022-09-30T14:20:40.846Z,1.30
2022-09-30T14:23:15.437Z,1.77
2022-09-30T14:25:52.472Z,2.60
2022-09-30T14:28:30.633Z,6.25
2022-09-30T14:31:09.348Z,6.13
2022-09-30T14:33:39.673Z,9.80
2022-09-30T14:36:14.818Z,2.08
2022-09-30T14:38:47.314Z,2.15
2022-09-30T14:41:21.426Z,5.22
2022-09-30T14:43:53.901Z,0.60
2022-09-30T14:46:31.137Z,0.80
2022-09-30T14:49:04.651Z,0.45
2022-09-30T14:51:43.535Z,3.05
2022-09-30T14:54:19.823Z,3.28
2022-09-30T14:56:48.485Z,1.88
2022-09-30T14:59:22.114Z,0.82
2022-09-30T15:01:55.454Z,2.85
2022-09-30T15:04:28.866Z,2.80
2022-09-30T15:07:17.988Z,0.65
2022-09-30T15:13:58.818Z,0.63
2022-09-30T15:17:20.862Z,2.78
2022-09-30T15:19:50.909Z,1.02
2022-09-30T15:22:59.821Z,2.05
2022-09-30T15:25:37.308Z,0.80
2022-09-30T15:28:09.009Z,3.70
2022-09-30T15:30:38.483Z,3.42
2022-09-30T15:33:07.569Z,4.78
2022-09-30T15:35:37.323Z,1.00
2022-09-30T15:38:11.547Z,1.73
2022-09-30T15:40:50.040Z,2.17
2022-09-30T15:43:40.281Z,0.68
2022-09-30T15:46:19.874Z,6.72
2022-09-30T15:48:48.726Z,1.77
2022-09-30T15:51:33.247Z,2.40
2022-09-30T15:54:03.667Z,4.13
2022-09-30T15:56:36.215Z,0.82
2022-09-30T15:59:06.658Z,10.43
2022-09-30T16:01:39.089Z,0.98
2022-09-30T16:04:14.368Z,1.92
2022-09-30T16:06:49.437Z,1.13
2022-09-30T16:09:24.634Z,2.70
2022-09-30T16:12:05.324Z,2.78
2022-09-30T16:14:37.335Z,0.98
2022-09-30T16:17:07.860Z,2.33
2022-09-30T16:19:36.269Z,0.90
2022-09-30T16:23:11.458Z,2.78
2022-09-30T16:26:32.084Z,1.80
2022-09-30T16:29:48.695Z,1.77
2022-09-30T16:33:07.004Z,2.58
2022-09-30T16:39:37.413Z,0.73
2022-09-30T16:42:51.672Z,1.17
2022-09-30T16:50:05.322Z,2.47
2022-09-30T16:53:25.584Z,1.45
2022-09-30T16:57:28.385Z,1.20
2022-09-30T17:01:30.137Z,3.38
2022-09-30T17:05:06.239Z,1.02
2022-09-30T17:08:32.899Z,2.05
2022-09-30T17:11:53.622Z,2.95
2022-09-30T17:15:02.158Z,0.68
2022-09-30T17:22:28.895Z,1.88
2022-09-30T17:25:56.236Z,1.33
2022-09-30T17:29:33.024Z,4.03
2022-09-30T17:36:10.404Z,2.10
2022-09-30T17:39:42.180Z,1.25
2022-09-30T17:43:17.263Z,0.50
2022-09-30T17:46:10.957Z,2.25
2022-09-30T17:49:24.187Z,6.32
2022-09-30T17:52:39.033Z,1.20
2022-09-30T17:56:38.804Z,5.40
2022-09-30T17:59:39.618Z,0.52
2022-09-30T18:03:01.673Z,0.90
2022-09-30T18:06:33.875Z,0.70
2022-09-30T18:09:57.489Z,3.30
2022-09-30T18:13:15.177Z,2.08
2022-09-30T18:16:41.700Z,0.65
2022-09-30T18:19:51.568Z,0.73
2022-09-30T18:23:05.128Z,1.27
2022-09-30T18:26:33.162Z,0.68
2022-09-30T18:29:44.066Z,1.90
2022-09-30T18:33:13.987Z,0.65
2022-09-30T18:39:41.277Z,0.43
2022-09-30T18:46:18.649Z,4.70
2022-09-30T18:49:39.844Z,0.50
2022-09-30T18:59:47.954Z,2.03
2022-09-30T19:02:50.789Z,0.70
2022-09-30T19:06:56.143Z,3.38
2022-09-30T19:10:53.061Z,6.57
2022-09-30T19:14:14.297Z,1.80
2022-09-30T19:17:36.360Z,0.77
2022-09-30T19:20:56.802Z,1.52
2022-09-30T19:27:15.399Z,0.50
2022-09-30T19:31:08.638Z,4.25
2022-09-30T19:34:28.348Z,0.70
2022-09-30T19:38:37.343Z,0.50
2022-09-30T19:41:47.437Z,0.52
2022-09-30T19:45:13.632Z,1.77
2022-09-30T19:48:59.384Z,1.42
2022-09-30T19:52:34.691Z,1.23
2022-09-30T19:55:50.606Z,0.40
2022-09-30T19:58:52.157Z,0.43
2022-09-30T20:02:29.863Z,1.13
2022-09-30T20:05:38.493Z,1.73
2022-09-30T20:08:06.739Z,1.20
2022-09-30T20:10:34.922Z,3.72
2022-09-30T20:13:03.435Z,1.10
2022-09-30T20:15:49.021Z,3.42
2022-09-30T20:18:20.166Z,2.92
2022-09-30T20:20:50.495Z,3.08
2022-09-30T20:23:19.331Z,1.00
2022-09-30T20:26:18.616Z,1.15
2022-09-30T20:29:31.849Z,2.10
2022-09-30T20:32:27.219Z,0.73
2022-09-30T20:34:57.890Z,2.00
2022-09-30T20:37:27.588Z,1.17
2022-09-30T20:40:03.885Z,1.77
2022-09-30T20:42:40.216Z,0.98
2022-09-30T20:45:18.220Z,1.33
2022-09-30T20:47:48.833Z,1.95
2022-09-30T20:50:57.170Z,1.15
2022-09-30T20:53:31.837Z,1.10
2022-09-30T20:56:08.230Z,3.55
2022-09-30T20:58:49.372Z,4.45
2022-09-30T21:01:20.083Z,1.80
2022-09-30T21:03:57.906Z,5.22
2022-09-30T21:06:27.910Z,2.13
2022-09-30T21:09:37.359Z,1.33
2022-09-30T21:12:17.890Z,6.25
2022-09-30T21:14:46.142Z,2.75
2022-09-30T21:17:14.308Z,4.38
2022-09-30T21:19:42.796Z,2.75
2022-09-30T21:22:11.269Z,2.20
2022-09-30T21:24:40.897Z,2.85
2022-09-30T21:27:09.794Z,1.58
2022-09-30T21:29:38.005Z,2.40
2022-09-30T21:32:06.356Z,1.80
2022-09-30T21:34:34.858Z,3.15
2022-09-30T21:37:03.090Z,2.50
2022-09-30T21:39:31.329Z,2.58
2022-09-30T21:42:00.976Z,2.72
2022-09-30T21:44:29.165Z,5.55
2022-09-30T21:46:58.441Z,2.55
2022-09-30T21:49:26.629Z,2.15
2022-09-30T21:51:55.346Z,3.58
2022-09-30T21:54:23.789Z,3.38
2022-09-30T21:56:52.199Z,2.75
2022-09-30T22:02:52.316Z,2.97
2022-09-30T22:05:22.254Z,3.53
2022-09-30T22:07:57.657Z,3.50
2022-09-30T22:10:30.227Z,3.58
2022-09-30T22:12:58.450Z,1.58
2022-09-30T22:15:28.254Z,3.25
2022-09-30T22:17:56.417Z,2.53
2022-09-30T22:20:24.623Z,4.82
2022-09-30T22:22:52.820Z,2.40
2022-09-30T22:25:22.386Z,3.03
2022-09-30T22:27:51.848Z,3.17
2022-09-30T22:30:20.986Z,3.13
2022-09-30T22:33:11.089Z,2.50
2022-09-30T22:35:56.800Z,2.92
2022-09-30T22:38:25.067Z,3.22
2022-09-30T22:40:55.829Z,3.67
2022-09-30T22:46:36.230Z,5.43
2022-09-30T22:50:14.457Z,3.30
2022-09-30T22:53:31.216Z,5.10
2022-09-30T22:56:54.996Z,6.55
2022-09-30T23:03:44.018Z,4.18
2022-09-30T23:07:09.099Z,5.70
2022-09-30T23:10:16.303Z,4.50
2022-09-30T23:13:32.065Z,4.97
2022-09-30T23:23:58.580Z,4.40
2022-09-30T23:26:48.039Z,4.80
2022-09-30T23:30:00.970Z,3.95
2022-09-30T23:33:03.473Z,5.32
2022-09-30T23:36:19.431Z,5.03
2022-09-30T23:39:28.331Z,4.78
2022-09-30T23:43:01.313Z,4.28
2022-09-30T23:47:07.342Z,5.15
2022-09-30T23:49:36.978Z,4.68
2022-09-30T23:52:10.541Z,5.80
2022-09-30T23:54:41.237Z,5.35
2022-09-30T23:57:10.647Z,4.43
2022-09-30T23:59:39.054Z,5.05
